Time;durP1;ratioP1;P1;durP2;ratioP2;P2;SDS_P1;SDS_P2;PMS_P1;PMS_P2;Temp;Humidity;BMP_temperature;BMP_pressure;BME280_temperature;BME280_humidity;BME280_pressure;Samples;Min_cycle;Max_cycle;Signal;HPM_P1;HPM_P2
2021/12/10 00:01:28;;;;;;;3.03;2.23;;;;;;;0.66;91.33;95411.28;5021636;28;20210;-70
2021/12/10 00:03:57;;;;;;;2.50;2.30;;;;;;;0.56;92.23;95410.31;5037170;28;20224;-70
2021/12/10 00:06:26;;;;;;;2.47;2.20;;;;;;;0.55;91.37;95403.44;5050279;28;20197;-71
2021/12/10 00:08:55;;;;;;;2.30;2.10;;;;;;;0.58;91.31;95397.19;5038451;28;20214;-69
2021/12/10 00:11:24;;;;;;;2.30;2.00;;;;;;;0.59;92.62;95386.69;5024446;28;20219;-71
2021/12/10 00:13:51;;;;;;;2.10;1.90;;;;;;;0.53;93.24;95379.34;5037267;28;20579;-70
2021/12/10 00:16:21;;;;;;;4.33;1.97;;;;;;;0.51;92.24;95368.19;5036556;28;20199;-70
2021/12/10 00:18:53;;;;;;;4.53;1.97;;;;;;;0.46;92.33;95368.53;5034527;28;20224;-72
2021/12/10 00:21:21;;;;;;;4.03;2.33;;;;;;;0.47;93.25;95358.97;5029210;28;20312;-71
2021/12/10 00:23:50;;;;;;;3.53;1.97;;;;;;;0.33;93.60;95359.16;5031679;28;20235;-72
2021/12/10 00:26:16;;;;;;;3.60;2.37;;;;;;;0.34;93.70;95358.22;5035738;28;20350;-72
2021/12/10 00:28:43;;;;;;;1.70;1.60;;;;;;;0.40;92.78;95342.16;5036395;28;20633;-70
2021/12/10 00:31:19;;;;;;;2.90;1.97;;;;;;;0.37;93.32;95338.03;5036717;28;20642;-71
2021/12/10 00:33:50;;;;;;;1.57;1.40;;;;;;;0.41;93.13;95328.22;5037411;28;20210;-71
2021/12/10 00:36:17;;;;;;;2.27;1.83;;;;;;;0.30;93.53;95318.63;5036579;28;20198;-69
2021/12/10 00:38:43;;;;;;;2.00;1.90;;;;;;;0.28;93.68;95314.47;5017989;28;20219;-68
2021/12/10 00:41:11;;;;;;;2.53;1.83;;;;;;;0.28;93.06;95310.13;5022989;28;20563;-69
2021/12/10 00:43:39;;;;;;;2.63;1.77;;;;;;;0.35;92.98;95307.88;5035632;28;20213;-67
2021/12/10 00:46:05;;;;;;;2.60;1.50;;;;;;;0.30;93.42;95296.97;5035448;28;20211;-69
2021/12/10 00:48:32;;;;;;;1.87;1.50;;;;;;;0.39;92.66;95297.13;5028750;28;20299;-68
2021/12/10 00:51:01;;;;;;;4.07;1.87;;;;;;;0.32;93.05;95298.53;5024896;28;20207;-68
2021/12/10 00:53:28;;;;;;;2.77;1.50;;;;;;;0.30;93.48;95284.81;5022927;28;20215;-69
2021/12/10 00:55:55;;;;;;;1.30;1.20;;;;;;;0.35;93.33;95276.69;5026454;28;20223;-69
2021/12/10 00:58:22;;;;;;;1.70;1.60;;;;;;;0.35;92.93;95272.31;5024098;28;20211;-71
2021/12/10 01:00:51;;;;;;;1.23;1.13;;;;;;;0.33;92.78;95258.59;5019774;28;20537;-73
2021/12/10 01:03:22;;;;;;;3.97;1.50;;;;;;;0.28;92.94;95245.13;5036307;28;20200;-70
2021/12/10 01:05:50;;;;;;;1.70;1.20;;;;;;;0.29;92.30;95245.94;5039505;28;20225;-71
2021/12/10 01:08:18;;;;;;;1.70;1.40;;;;;;;0.26;92.83;95236.59;5035080;28;20197;-74
2021/12/10 01:10:51;;;;;;;1.43;1.20;;;;;;;0.19;92.02;95229.38;5034555;28;20224;-73
2021/12/10 01:13:26;;;;;;;1.53;1.10;;;;;;;0.23;92.58;95228.19;5021043;28;20237;-70
2021/12/10 01:16:11;;;;;;;3.23;1.40;;;;;;;0.17;92.55;95226.06;5018244;28;20263;-69
2021/12/10 01:24:31;;;;;;;2.47;1.33;;;;;;;0.18;92.33;95207.75;5048637;28;20305;-72
2021/12/10 01:27:03;;;;;;;2.27;1.23;;;;;;;0.23;92.42;95184.00;5039245;28;20201;-72
2021/12/10 01:29:32;;;;;;;3.30;1.10;;;;;;;0.30;92.23;95180.00;5048067;28;20206;-72
2021/12/10 01:31:59;;;;;;;1.13;1.10;;;;;;;0.30;92.59;95174.81;5057171;28;20205;-69
2021/12/10 01:34:27;;;;;;;2.43;1.10;;;;;;;0.29;92.06;95162.75;5055928;28;20201;-69
2021/12/10 01:36:54;;;;;;;1.57;1.07;;;;;;;0.16;92.95;95152.47;5041947;28;20648;-70
2021/12/10 01:39:24;;;;;;;1.53;1.00;;;;;;;0.24;92.23;95154.50;5039228;28;20208;-71
2021/12/10 01:41:58;;;;;;;1.80;1.23;;;;;;;0.16;92.18;95146.44;5038995;28;20225;-70
2021/12/10 01:44:30;;;;;;;0.93;0.80;;;;;;;0.18;92.08;95141.97;5038043;28;20216;-71
2021/12/10 01:46:59;;;;;;;3.60;1.00;;;;;;;0.22;92.57;95140.75;5025604;28;20299;-72
2021/12/10 01:49:26;;;;;;;1.23;1.03;;;;;;;0.16;93.08;95141.25;5038585;28;20212;-72
2021/12/10 01:51:53;;;;;;;2.20;0.93;;;;;;;0.15;92.85;95123.97;5038251;28;20217;-73
2021/12/10 01:54:23;;;;;;;0.70;0.70;;;;;;;0.16;92.77;95125.66;5037951;28;20639;-70
2021/12/10 01:56:51;;;;;;;5.33;1.20;;;;;;;0.11;93.38;95122.59;5028810;28;20241;-74
2021/12/10 01:59:19;;;;;;;1.67;1.20;;;;;;;0.12;92.79;95114.66;5038287;28;20644;-70
2021/12/10 02:01:48;;;;;;;2.50;1.10;;;;;;;0.12;93.04;95116.44;5038808;28;20494;-70
2021/12/10 02:04:17;;;;;;;2.00;1.20;;;;;;;0.12;92.58;95119.03;5038179;28;20238;-70
2021/12/10 02:06:43;;;;;;;2.03;1.10;;;;;;;0.08;92.89;95115.00;5038688;28;20216;-68
2021/12/10 02:09:11;;;;;;;2.27;1.27;;;;;;;0.14;92.65;95106.75;5038415;28;20209;-69
2021/12/10 02:11:39;;;;;;;1.20;0.97;;;;;;;0.12;93.24;95100.81;5039133;28;20212;-69
2021/12/10 02:14:05;;;;;;;2.07;1.00;;;;;;;0.10;92.83;95100.13;5037552;28;20235;-69
2021/12/10 02:16:32;;;;;;;2.23;1.47;;;;;;;0.10;92.85;95097.53;5030229;28;20208;-69
2021/12/10 02:18:59;;;;;;;1.77;1.20;;;;;;;0.13;92.64;95082.53;5030557;28;20216;-70
2021/12/10 02:21:29;;;;;;;1.17;1.07;;;;;;;0.09;93.42;95067.28;5039973;28;20531;-70
2021/12/10 02:23:58;;;;;;;1.20;1.10;;;;;;;0.04;92.67;95048.66;5030609;28;20201;-70
2021/12/10 02:26:27;;;;;;;2.07;1.07;;;;;;;0.02;94.39;95035.75;5019308;28;20219;-70
2021/12/10 02:28:54;;;;;;;0.90;0.90;;;;;;;0.08;93.52;95035.28;5036956;28;20219;-70
2021/12/10 02:31:21;;;;;;;2.10;1.43;;;;;;;0.07;93.57;95028.44;5050097;28;20204;-71
2021/12/10 02:33:48;;;;;;;1.70;1.13;;;;;;;0.05;93.40;95008.69;5036185;28;20519;-71
2021/12/10 02:36:14;;;;;;;1.23;1.00;;;;;;;0.07;92.59;95006.81;5019483;28;20221;-71
2021/12/10 02:38:44;;;;;;;2.57;1.40;;;;;;;0.03;92.29;95003.66;5021917;28;20217;-71
2021/12/10 02:41:11;;;;;;;2.33;1.23;;;;;;;0.06;93.91;95000.81;5027441;28;20228;-72
2021/12/10 02:43:38;;;;;;;2.07;1.10;;;;;;;0.10;93.83;94991.81;5042166;28;20249;-72
2021/12/10 02:46:05;;;;;;;1.90;0.77;;;;;;;0.09;92.15;94987.56;5024657;28;20683;-72
2021/12/10 02:48:32;;;;;;;1.93;1.10;;;;;;;0.07;92.85;94984.28;5025213;28;20205;-73
2021/12/10 02:51:00;;;;;;;1.53;0.97;;;;;;;0.12;92.39;94976.91;5036504;28;20204;-72
2021/12/10 02:53:28;;;;;;;2.10;1.13;;;;;;;0.17;92.22;94971.38;5024756;28;20213;-69
2021/12/10 02:55:57;;;;;;;4.00;1.23;;;;;;;0.13;92.37;94962.16;5028794;28;20209;-69
2021/12/10 02:58:24;;;;;;;1.33;0.97;;;;;;;0.12;92.67;94947.50;5037854;28;20664;-71
2021/12/10 03:00:56;;;;;;;1.27;0.90;;;;;;;0.10;93.35;94944.22;5037308;28;20679;-69
2021/12/10 03:03:22;;;;;;;2.43;1.00;;;;;;;0.11;93.44;94943.28;5035296;28;20214;-73
2021/12/10 03:05:50;;;;;;;2.43;1.40;;;;;;;0.15;92.46;94950.69;5049976;28;20219;-69
2021/12/10 03:08:16;;;;;;;2.70;1.20;;;;;;;0.14;92.15;94937.84;5037510;28;20208;-71
2021/12/10 03:10:43;;;;;;;1.00;1.00;;;;;;;0.03;91.62;94936.09;5035124;28;20209;-70
2021/12/10 03:13:11;;;;;;;2.60;1.43;;;;;;;0.06;92.68;94927.22;5017838;28;20542;-70
2021/12/10 03:15:39;;;;;;;2.07;1.43;;;;;;;0.08;92.28;94927.91;5017242;28;20201;-70
2021/12/10 03:18:09;;;;;;;3.20;1.10;;;;;;;0.05;93.88;94935.94;5017503;28;20504;-70
2021/12/10 03:20:35;;;;;;;1.30;1.20;;;;;;;0.03;91.94;94928.28;5025283;28;20223;-71
2021/12/10 03:23:03;;;;;;;1.90;1.20;;;;;;;0.12;93.15;94929.31;5018782;28;20217;-71
2021/12/10 03:25:30;;;;;;;2.63;1.30;;;;;;;0.05;92.67;94931.59;5022015;28;20224;-69
2021/12/10 03:27:57;;;;;;;1.43;1.27;;;;;;;0.11;92.78;94925.09;5021226;28;20214;-73
2021/12/10 03:30:27;;;;;;;1.43;1.20;;;;;;;0.08;92.86;94938.28;5020572;28;20636;-70
2021/12/10 03:32:55;;;;;;;2.73;1.30;;;;;;;0.15;93.06;94936.88;5037246;28;20207;-70
2021/12/10 03:35:25;;;;;;;2.87;1.40;;;;;;;0.08;92.71;94930.50;5036748;28;20205;-70
2021/12/10 03:37:53;;;;;;;3.53;1.50;;;;;;;0.11;93.29;94927.69;5034881;28;20190;-70
2021/12/10 03:40:19;;;;;;;1.60;0.93;;;;;;;0.11;93.92;94931.09;5022980;28;20201;-70
2021/12/10 03:42:47;;;;;;;3.10;1.10;;;;;;;0.08;93.52;94925.31;5035317;28;20274;-71
2021/12/10 03:45:15;;;;;;;1.53;1.33;;;;;;;0.14;93.12;94924.84;5036825;28;20223;-70
2021/12/10 03:47:44;;;;;;;1.50;1.40;;;;;;;0.06;93.36;94916.81;5037460;28;20218;-70
2021/12/10 03:50:11;;;;;;;1.47;1.03;;;;;;;0.18;92.13;94916.66;5037672;28;20210;-71
2021/12/10 03:52:38;;;;;;;2.13;1.10;;;;;;;0.08;92.25;94915.75;5024835;28;20205;-70
2021/12/10 03:55:06;;;;;;;2.17;1.20;;;;;;;0.12;92.69;94918.91;5018678;28;20212;-70
2021/12/10 03:57:33;;;;;;;0.90;0.90;;;;;;;0.11;92.55;94909.50;5031021;28;20231;-71
2021/12/10 04:00:00;;;;;;;2.50;1.53;;;;;;;0.03;93.41;94904.91;5022877;28;20209;-70
2021/12/10 04:02:27;;;;;;;2.33;1.23;;;;;;;0.05;92.08;94902.16;5032779;28;20208;-70
2021/12/10 04:04:54;;;;;;;3.87;1.50;;;;;;;0.10;92.00;94900.03;5034418;28;20288;-71
2021/12/10 04:07:23;;;;;;;2.43;1.40;;;;;;;0.05;91.70;94896.97;5033854;28;20206;-71
2021/12/10 04:09:51;;;;;;;2.63;1.50;;;;;;;0.05;92.05;94886.59;5042901;28;20200;-69
2021/12/10 04:12:18;;;;;;;2.63;1.73;;;;;;;-0.06;92.29;94885.66;5051874;28;20207;-70
2021/12/10 04:14:46;;;;;;;1.90;1.40;;;;;;;0.05;92.63;94890.00;5027901;28;20587;-71
2021/12/10 04:17:13;;;;;;;2.67;1.70;;;;;;;0.08;92.58;94894.13;5018289;28;20224;-69
2021/12/10 04:19:42;;;;;;;1.77;1.57;;;;;;;0.03;92.53;94886.72;5035914;28;20208;-69
2021/12/10 04:22:10;;;;;;;2.90;1.50;;;;;;;0.06;92.18;94886.47;5032519;28;20238;-71
2021/12/10 04:24:39;;;;;;;2.83;1.73;;;;;;;0.07;92.65;94866.50;5026110;28;20209;-68
2021/12/10 04:27:11;;;;;;;4.70;2.10;;;;;;;-0.01;92.08;94860.16;5016191;28;20213;-70
2021/12/10 04:29:39;;;;;;;3.50;1.70;;;;;;;0.06;93.46;94849.25;5016376;28;20205;-72
2021/12/10 04:32:06;;;;;;;1.60;1.50;;;;;;;0.07;92.85;94853.53;5022808;28;20228;-70
2021/12/10 04:34:33;;;;;;;2.00;1.63;;;;;;;0.02;92.94;94856.47;5016176;28;20299;-73
2021/12/10 04:37:02;;;;;;;2.97;1.70;;;;;;;-0.02;91.98;94853.31;5016578;28;20216;-71
2021/12/10 04:39:30;;;;;;;1.83;1.27;;;;;;;-0.01;94.17;94843.75;5025614;28;20227;-70
2021/12/10 04:41:57;;;;;;;2.30;1.60;;;;;;;0.05;93.28;94838.03;5032864;28;20668;-71
2021/12/10 04:44:23;;;;;;;2.80;1.63;;;;;;;-0.01;93.56;94828.97;5035626;28;20219;-70
2021/12/10 04:46:50;;;;;;;1.63;1.53;;;;;;;0.05;93.27;94840.63;5035443;28;20236;-71
2021/12/10 04:49:17;;;;;;;3.47;1.67;;;;;;;0.05;92.83;94827.66;5035285;28;20208;-72
2021/12/10 04:51:46;;;;;;;3.87;2.47;;;;;;;0.07;92.32;94825.78;5034946;28;20234;-70
2021/12/10 04:54:13;;;;;;;4.70;2.80;;;;;;;0.08;92.08;94826.56;5021571;28;20636;-71
2021/12/10 04:56:44;;;;;;;1.50;1.33;;;;;;;0.09;91.92;94818.66;5022788;28;20239;-72
2021/12/10 04:59:13;;;;;;;1.27;0.80;;;;;;;-0.01;92.92;94805.59;5036058;28;20207;-70
2021/12/10 05:01:40;;;;;;;1.30;1.20;;;;;;;-0.02;92.87;94803.94;5037457;28;20223;-71
2021/12/10 05:04:08;;;;;;;3.47;1.50;;;;;;;-0.01;92.98;94803.00;5041559;28;20207;-71
2021/12/10 05:06:34;;;;;;;1.80;1.10;;;;;;;0.00;92.69;94796.03;5053880;28;20228;-72
2021/12/10 05:09:02;;;;;;;2.30;1.37;;;;;;;0.02;92.65;94795.91;5042995;28;20200;-72
2021/12/10 05:11:29;;;;;;;3.47;1.13;;;;;;;0.06;92.04;94797.31;5037106;28;20229;-71
2021/12/10 05:13:56;;;;;;;3.03;1.30;;;;;;;0.08;92.06;94785.81;5042505;28;20205;-69
2021/12/10 05:16:26;;;;;;;2.37;1.27;;;;;;;0.04;93.07;94784.41;5042040;28;20226;-71
2021/12/10 05:18:56;;;;;;;2.30;1.23;;;;;;;0.08;92.03;94775.44;5041296;28;20223;-73
2021/12/10 05:21:23;;;;;;;1.90;1.40;;;;;;;0.14;91.87;94781.91;5040597;28;20220;-72
2021/12/10 05:23:50;;;;;;;1.30;1.20;;;;;;;0.06;92.30;94772.16;5023971;28;20228;-70
2021/12/10 05:26:16;;;;;;;3.33;1.50;;;;;;;0.11;91.65;94769.19;5027403;28;20250;-72
2021/12/10 05:28:43;;;;;;;4.50;1.87;;;;;;;0.11;92.07;94780.38;5040054;28;20213;-71
2021/12/10 05:31:11;;;;;;;2.00;1.37;;;;;;;0.09;92.52;94774.50;5034963;28;20228;-70
2021/12/10 05:33:37;;;;;;;1.40;1.13;;;;;;;0.10;93.12;94772.72;5060750;28;20192;-72
2021/12/10 05:36:05;;;;;;;2.03;1.13;;;;;;;0.03;92.84;94767.19;5064322;28;20192;-72
2021/12/10 05:38:32;;;;;;;1.27;1.17;;;;;;;0.04;93.17;94775.81;5049044;28;20224;-71
2021/12/10 05:41:00;;;;;;;1.57;1.27;;;;;;;0.08;92.27;94777.19;5024869;28;20231;-71
2021/12/10 05:43:27;;;;;;;1.37;1.27;;;;;;;0.10;92.16;94767.53;5041140;28;20543;-70
2021/12/10 05:45:53;;;;;;;3.50;2.07;;;;;;;0.11;91.99;94769.19;5029890;28;20239;-70
2021/12/10 05:48:23;;;;;;;2.27;1.13;;;;;;;0.15;92.03;94754.97;5037760;28;20216;-72
2021/12/10 05:50:50;;;;;;;2.40;1.40;;;;;;;0.09;92.92;94756.28;5033367;28;20208;-73
2021/12/10 05:53:17;;;;;;;4.80;1.50;;;;;;;0.05;92.43;94748.88;5035777;28;20667;-70
2021/12/10 05:55:44;;;;;;;1.80;1.17;;;;;;;0.14;92.66;94753.34;5021565;28;20266;-70
2021/12/10 05:58:11;;;;;;;1.50;1.20;;;;;;;0.10;92.76;94737.16;5034046;28;20271;-68
2021/12/10 06:00:42;;;;;;;1.37;0.93;;;;;;;0.13;92.62;94736.91;5021122;28;20218;-70
2021/12/10 06:03:08;;;;;;;2.20;1.23;;;;;;;0.19;93.12;94731.19;5026549;28;20239;-72
2021/12/10 06:05:36;;;;;;;1.60;1.50;;;;;;;0.22;93.21;94724.91;5023232;28;20687;-69
2021/12/10 06:08:04;;;;;;;1.77;1.43;;;;;;;0.19;92.88;94710.41;5021625;28;20209;-68
2021/12/10 06:10:31;;;;;;;3.37;1.87;;;;;;;0.23;92.77;94706.59;5021236;28;20803;-69
2021/12/10 06:12:58;;;;;;;6.63;5.17;;;;;;;0.27;92.61;94696.78;5023155;28;20209;-69
2021/12/10 06:15:26;;;;;;;3.37;2.57;;;;;;;0.24;91.17;94676.25;5041268;28;20201;-69
2021/12/10 06:17:53;;;;;;;3.27;2.60;;;;;;;0.31;91.61;94672.19;5041071;28;20204;-69
2021/12/10 06:20:22;;;;;;;2.70;2.40;;;;;;;0.33;90.89;94665.06;5040292;28;20620;-70
2021/12/10 06:22:50;;;;;;;3.77;2.07;;;;;;;0.40;90.29;94655.78;5041162;28;20288;-69
2021/12/10 06:25:16;;;;;;;2.53;2.33;;;;;;;0.53;89.91;94659.00;5028136;28;20205;-69
2021/12/10 06:27:45;;;;;;;3.80;2.77;;;;;;;0.51;88.56;94655.69;5029461;28;20206;-71
2021/12/10 06:30:12;;;;;;;2.43;2.20;;;;;;;0.68;88.92;94655.06;5027398;28;20201;-69
2021/12/10 06:32:39;;;;;;;3.87;2.27;;;;;;;0.77;87.91;94645.66;5023375;28;20216;-69
2021/12/10 06:35:06;;;;;;;2.83;2.37;;;;;;;0.62;86.12;94649.59;5022685;28;20210;-70
2021/12/10 06:37:32;;;;;;;2.40;2.30;;;;;;;0.52;86.62;94639.16;5018087;28;20216;-70
2021/12/10 06:40:00;;;;;;;6.23;2.27;;;;;;;0.64;87.72;94638.09;5017573;28;20647;-70
2021/12/10 06:42:27;;;;;;;3.40;2.20;;;;;;;0.67;87.39;94637.00;5027169;28;20703;-68
2021/12/10 06:44:53;;;;;;;2.87;2.57;;;;;;;0.70;87.22;94634.16;5037880;28;20210;-68
2021/12/10 06:47:20;;;;;;;2.87;2.50;;;;;;;0.68;86.94;94623.88;5027618;28;20230;-71
2021/12/10 06:49:46;;;;;;;1.80;1.70;;;;;;;0.78;87.43;94619.50;5020507;28;20213;-69
2021/12/10 06:52:14;;;;;;;3.33;3.03;;;;;;;0.84;87.81;94633.78;5036490;28;20217;-71
2021/12/10 06:54:41;;;;;;;3.70;2.20;;;;;;;0.91;87.28;94635.72;5033213;28;20222;-70
2021/12/10 06:57:08;;;;;;;3.47;2.80;;;;;;;0.89;86.90;94632.41;5031610;28;20209;-69
2021/12/10 06:59:35;;;;;;;2.57;2.33;;;;;;;0.94;86.94;94632.00;5032622;28;20201;-68
2021/12/10 07:02:02;;;;;;;3.47;2.50;;;;;;;0.95;86.54;94631.88;5031403;28;20201;-70
2021/12/10 07:04:28;;;;;;;3.93;2.03;;;;;;;0.91;87.96;94630.50;5030742;28;20209;-71
2021/12/10 07:06:55;;;;;;;2.53;2.33;;;;;;;0.91;87.50;94624.47;5028042;28;20226;-68
2021/12/10 07:09:23;;;;;;;2.40;2.10;;;;;;;1.05;85.69;94631.06;5027820;28;20205;-69
2021/12/10 07:11:52;;;;;;;2.00;1.80;;;;;;;0.96;86.90;94622.28;5030646;28;20194;-70
2021/12/10 07:14:20;;;;;;;2.10;1.90;;;;;;;0.94;86.71;94613.78;5026876;28;20201;-68
2021/12/10 07:16:48;;;;;;;2.63;2.20;;;;;;;0.97;86.80;94609.16;5029439;28;20217;-68
2021/12/10 07:19:15;;;;;;;2.63;1.97;;;;;;;0.96;86.71;94611.88;5030031;28;20618;-71
2021/12/10 07:21:42;;;;;;;2.30;1.87;;;;;;;0.95;87.28;94624.09;5028398;28;20648;-70
2021/12/10 07:24:10;;;;;;;1.80;1.70;;;;;;;1.03;85.98;94614.78;5030414;28;20537;-70
2021/12/10 07:26:38;;;;;;;2.33;1.80;;;;;;;1.03;86.52;94622.59;5027160;28;20235;-70
2021/12/10 07:29:05;;;;;;;2.10;2.00;;;;;;;1.07;85.18;94626.53;5030118;28;20209;-71
2021/12/10 07:31:34;;;;;;;3.67;2.37;;;;;;;1.12;85.49;94639.97;5033508;28;20249;-69
2021/12/10 07:34:01;;;;;;;2.47;2.13;;;;;;;1.20;84.07;94643.56;5043348;28;20213;-70
2021/12/10 07:36:27;;;;;;;2.90;2.60;;;;;;;1.11;84.35;94661.75;5020661;28;20208;-71
2021/12/10 07:38:56;;;;;;;2.20;2.10;;;;;;;1.18;83.16;94658.47;5022959;28;20535;-69
2021/12/10 07:41:23;;;;;;;4.47;2.17;;;;;;;1.11;83.01;94646.13;5031423;28;20229;-70
2021/12/10 07:43:50;;;;;;;2.43;2.23;;;;;;;0.96;83.66;94624.88;5045649;28;20213;-68
2021/12/10 07:46:16;;;;;;;3.20;1.70;;;;;;;0.88;84.60;94624.75;5050635;28;20228;-68
2021/12/10 07:48:45;;;;;;;2.90;2.07;;;;;;;0.87;86.49;94629.13;5040727;28;20655;-68
2021/12/10 07:51:16;;;;;;;2.80;2.03;;;;;;;0.85;86.98;94620.63;5053132;28;20216;-71
2021/12/10 07:53:43;;;;;;;2.30;2.07;;;;;;;0.90;86.35;94612.41;5037372;28;20198;-71
2021/12/10 07:56:11;;;;;;;2.30;2.10;;;;;;;0.91;85.99;94588.88;5046392;28;20200;-71
2021/12/10 07:58:40;;;;;;;4.73;2.40;;;;;;;0.94;85.05;94599.00;5052066;28;20209;-69
2021/12/10 08:01:10;;;;;;;3.50;2.30;;;;;;;1.05;85.43;94612.84;5042405;28;20206;-70
2021/12/10 08:03:36;;;;;;;2.40;2.17;;;;;;;1.23;83.89;94611.22;5042993;28;20202;-68
2021/12/10 08:06:05;;;;;;;3.47;2.47;;;;;;;1.19;84.93;94613.28;5045525;28;20236;-69
2021/12/10 08:08:32;;;;;;;3.87;2.27;;;;;;;1.11;86.44;94607.94;5043140;28;20237;-71
2021/12/10 08:10:59;;;;;;;4.70;2.30;;;;;;;1.10;86.76;94608.06;5031262;28;20205;-71
2021/12/10 08:13:25;;;;;;;3.27;2.13;;;;;;;1.16;86.38;94608.34;5029523;28;20211;-68
2021/12/10 08:15:52;;;;;;;2.77;2.10;;;;;;;1.12;86.81;94606.97;5030932;28;20201;-69
2021/12/10 08:18:20;;;;;;;5.07;2.43;;;;;;;1.17;87.23;94603.97;5044473;28;20201;-69
2021/12/10 08:20:46;;;;;;;3.10;2.33;;;;;;;1.18;86.55;94603.00;5053811;28;20219;-69
2021/12/10 08:23:14;;;;;;;4.13;2.30;;;;;;;1.24;85.12;94599.88;5053691;28;20212;-71
2021/12/10 08:25:42;;;;;;;2.30;2.10;;;;;;;1.27;86.46;94605.63;5050819;28;20217;-69
2021/12/10 08:28:08;;;;;;;2.30;1.80;;;;;;;1.27;85.85;94595.22;5052328;28;20236;-69
2021/12/10 08:30:37;;;;;;;3.70;2.40;;;;;;;1.24;87.50;94584.25;5052672;28;20205;-69
2021/12/10 08:33:10;;;;;;;2.47;2.27;;;;;;;1.25;85.61;94593.69;5052297;28;20217;-69
2021/12/10 08:35:37;;;;;;;2.67;2.23;;;;;;;1.33;85.00;94588.63;5044044;28;20224;-69
2021/12/10 08:38:04;;;;;;;1.93;1.83;;;;;;;1.42;85.47;94599.03;5035268;28;20197;-70
2021/12/10 08:40:33;;;;;;;2.13;1.90;;;;;;;1.52;84.88;94599.03;5043281;28;20253;-70
2021/12/10 08:43:00;;;;;;;2.03;1.80;;;;;;;1.55;84.95;94598.75;5048168;28;20279;-70
2021/12/10 08:45:28;;;;;;;3.20;2.10;;;;;;;1.52;85.67;94609.44;5040087;28;20220;-70
2021/12/10 08:47:56;;;;;;;2.60;2.40;;;;;;;1.54;86.02;94622.31;5039126;28;20234;-68
2021/12/10 08:50:24;;;;;;;7.03;2.73;;;;;;;1.50;85.08;94606.16;5039081;28;20208;-68
2021/12/10 08:52:52;;;;;;;3.67;2.23;;;;;;;1.49;85.44;94604.50;5035259;28;20217;-68
2021/12/10 08:55:18;;;;;;;2.43;2.23;;;;;;;1.49;84.35;94600.13;5035814;28;20215;-67
2021/12/10 08:57:47;;;;;;;3.07;2.30;;;;;;;1.58;85.04;94613.28;5032620;28;20201;-70
2021/12/10 09:00:14;;;;;;;3.00;2.37;;;;;;;1.56;85.21;94617.81;5030383;28;20213;-68
2021/12/10 09:02:41;;;;;;;2.20;2.00;;;;;;;1.63;85.04;94601.47;5037236;28;20204;-70
2021/12/10 09:05:09;;;;;;;3.60;2.23;;;;;;;1.64;84.58;94608.31;5046464;28;20202;-69
2021/12/10 09:07:38;;;;;;;2.87;2.43;;;;;;;1.61;85.12;94608.59;5040449;28;20675;-68
2021/12/10 09:10:08;;;;;;;3.40;1.97;;;;;;;1.65;84.79;94609.97;5040052;28;20267;-68
2021/12/10 09:12:35;;;;;;;2.87;2.23;;;;;;;1.62;85.49;94605.06;5025403;28;20211;-70
2021/12/10 09:15:06;;;;;;;3.77;1.90;;;;;;;1.62;87.40;94605.06;5044424;28;20201;-72
2021/12/10 09:17:33;;;;;;;2.60;2.13;;;;;;;1.70;86.48;94618.19;5044437;28;20213;-71
2021/12/10 09:20:02;;;;;;;2.90;2.60;;;;;;;1.63;86.14;94614.50;5036621;28;20210;-70
2021/12/10 09:22:28;;;;;;;2.60;2.10;;;;;;;1.71;85.45;94625.03;5036222;28;20541;-69
2021/12/10 09:24:55;;;;;;;1.97;1.60;;;;;;;1.86;81.60;94623.66;5035315;28;20205;-70
2021/12/10 09:27:23;;;;;;;2.10;1.40;;;;;;;1.75;81.11;94626.41;5033179;28;20313;-69
2021/12/10 09:29:52;;;;;;;5.53;1.80;;;;;;;1.81;80.47;94630.22;5033362;28;20205;-68
2021/12/10 09:32:22;;;;;;;1.73;1.50;;;;;;;1.80;80.52;94619.03;5031424;28;20640;-68
2021/12/10 09:34:49;;;;;;;1.50;1.40;;;;;;;1.84;80.64;94624.78;5027155;28;20233;-70
2021/12/10 09:37:16;;;;;;;2.03;1.90;;;;;;;1.80;81.72;94619.03;5027302;28;20219;-68
2021/12/10 09:39:43;;;;;;;2.43;2.23;;;;;;;1.83;81.32;94618.75;5028338;28;20203;-69
2021/12/10 09:42:10;;;;;;;1.80;1.70;;;;;;;1.85;82.69;94606.38;5026848;28;20288;-70
2021/12/10 09:44:37;;;;;;;4.20;2.47;;;;;;;1.93;82.92;94603.06;5027190;28;20225;-71
2021/12/10 09:47:07;;;;;;;4.53;2.13;;;;;;;1.89;82.55;94588.69;5031564;28;20241;-70
2021/12/10 09:49:35;;;;;;;3.53;2.40;;;;;;;1.92;83.00;94602.25;5032306;28;20210;-69
2021/12/10 09:52:05;;;;;;;2.33;2.00;;;;;;;1.80;84.33;94611.19;5028435;28;20211;-70
2021/12/10 09:54:33;;;;;;;3.77;2.47;;;;;;;1.74;83.59;94609.13;5026720;28;20228;-69
2021/12/10 09:57:04;;;;;;;7.07;2.73;;;;;;;1.77;84.02;94593.22;5029983;28;20199;-70
2021/12/10 09:59:31;;;;;;;13.63;3.37;;;;;;;1.82;83.61;94600.63;5032223;28;20257;-70
2021/12/10 10:01:59;;;;;;;17.97;3.37;;;;;;;1.78;83.75;94610.50;5036069;28;20206;-69
2021/12/10 10:04:27;;;;;;;55.53;9.37;;;;;;;1.73;83.24;94604.91;5031927;28;20201;-69
2021/12/10 10:06:57;;;;;;;37.73;7.43;;;;;;;1.58;86.08;94610.66;5030337;28;20221;-69
2021/12/10 10:09:24;;;;;;;4.83;2.47;;;;;;;1.54;86.29;94599.72;5030965;28;20221;-68
2021/12/10 10:11:55;;;;;;;3.77;2.60;;;;;;;1.45;86.78;94601.34;5033188;28;20206;-70
2021/12/10 10:14:21;;;;;;;2.80;2.43;;;;;;;1.46;86.50;94583.94;5031947;28;20203;-70
2021/12/10 10:16:55;;;;;;;3.77;2.53;;;;;;;1.47;85.57;94594.22;5035298;28;20213;-70
2021/12/10 10:19:22;;;;;;;4.10;2.47;;;;;;;1.37;85.99;94583.00;5025520;28;20227;-68
2021/12/10 10:21:53;;;;;;;6.33;2.80;;;;;;;1.34;86.39;94579.84;5025264;28;20213;-72
2021/12/10 10:24:22;;;;;;;7.33;2.53;;;;;;;1.30;86.59;94578.47;5019207;28;20202;-70
2021/12/10 10:26:54;;;;;;;4.00;2.40;;;;;;;1.29;87.73;94571.63;5033493;28;20233;-67
2021/12/10 10:29:22;;;;;;;2.53;2.30;;;;;;;1.32;87.70;94566.13;5038797;28;20214;-68
2021/12/10 10:31:53;;;;;;;2.93;2.37;;;;;;;1.42;86.81;94570.38;5038287;28;20212;-69
2021/12/10 10:34:21;;;;;;;3.50;2.73;;;;;;;1.51;86.72;94576.56;5038519;28;20211;-68
2021/12/10 10:36:48;;;;;;;2.30;2.17;;;;;;;1.47;86.70;94575.19;5037580;28;20206;-69
2021/12/10 10:39:16;;;;;;;3.03;2.20;;;;;;;1.47;86.83;94577.78;5037891;28;20300;-70
2021/12/10 10:41:46;;;;;;;4.30;2.67;;;;;;;1.44;85.76;94580.66;5037597;28;20249;-72
2021/12/10 10:44:13;;;;;;;3.10;2.23;;;;;;;1.36;87.55;94572.72;5037569;28;20638;-69
2021/12/10 10:46:40;;;;;;;2.70;2.50;;;;;;;1.38;87.87;94570.81;5038128;28;20210;-70
2021/12/10 10:49:07;;;;;;;3.07;2.40;;;;;;;1.32;88.86;94573.94;5038060;28;20213;-69
2021/12/10 10:51:36;;;;;;;3.73;2.53;;;;;;;1.19;89.45;94574.25;5034504;28;20224;-71
2021/12/10 10:54:06;;;;;;;2.87;2.33;;;;;;;1.29;90.82;94574.22;5037909;28;20206;-69
2021/12/10 10:56:35;;;;;;;4.23;2.90;;;;;;;1.26;90.56;94567.53;5028910;28;20207;-71
2021/12/10 10:59:11;;;;;;;2.87;2.60;;;;;;;1.30;90.69;94570.66;5037685;28;20217;-70
2021/12/10 11:01:44;;;;;;;3.20;2.90;;;;;;;1.39;90.61;94575.88;5037892;28;20205;-68
2021/12/10 11:04:17;;;;;;;2.50;2.30;;;;;;;1.45;89.53;94571.91;5024388;28;20208;-71
2021/12/10 11:06:48;;;;;;;3.13;2.83;;;;;;;1.46;89.52;94573.53;5048164;28;20313;-71
2021/12/10 11:09:17;;;;;;;3.10;2.80;;;;;;;1.44;88.76;94567.66;5020832;28;20301;-71
2021/12/10 11:11:48;;;;;;;2.70;2.60;;;;;;;1.49;90.08;94568.03;5035277;28;20214;-70
2021/12/10 11:14:20;;;;;;;3.27;2.97;;;;;;;1.61;89.04;94561.72;5037633;28;20626;-70
2021/12/10 11:16:51;;;;;;;2.90;2.70;;;;;;;1.71;89.52;94557.31;5038580;28;20216;-68
2021/12/10 11:19:19;;;;;;;3.13;2.90;;;;;;;1.77;88.86;94546.31;5039567;28;20271;-70
2021/12/10 11:21:48;;;;;;;3.10;2.80;;;;;;;1.78;88.59;94547.97;5042794;28;20210;-71
2021/12/10 11:24:20;;;;;;;2.80;2.60;;;;;;;1.90;89.55;94549.47;5046959;28;20512;-72
2021/12/10 11:26:56;;;;;;;3.60;2.90;;;;;;;2.14;88.20;94545.53;5039157;28;20218;-70
2021/12/10 11:29:40;;;;;;;2.90;2.70;;;;;;;1.99;90.88;94537.34;5037550;28;20210;-70
2021/12/10 11:32:11;;;;;;;4.23;2.33;;;;;;;2.12;88.16;94539.66;5035245;28;20207;-73
2021/12/10 11:34:47;;;;;;;3.17;2.80;;;;;;;2.19;86.57;94531.09;5036766;28;20218;-76
2021/12/10 11:37:16;;;;;;;2.67;2.47;;;;;;;2.10;86.18;94531.13;5036514;28;20207;-77
2021/12/10 11:39:49;;;;;;;4.03;2.77;;;;;;;1.94;89.04;94536.97;5036651;28;20233;-76
2021/12/10 11:42:38;;;;;;;3.20;2.90;;;;;;;1.94;89.11;94531.75;5019013;28;20235;-72
2021/12/10 11:45:29;;;;;;;2.70;2.50;;;;;;;2.00;87.91;94526.78;5036740;28;20209;-69
2021/12/10 11:48:05;;;;;;;3.33;2.50;;;;;;;1.88;88.39;94522.69;5036696;28;20236;-74
2021/12/10 11:50:32;;;;;;;2.50;2.40;;;;;;;1.94;88.83;94521.34;5036111;28;20536;-75
2021/12/10 11:53:01;;;;;;;2.50;2.30;;;;;;;1.96;88.63;94525.44;5019573;28;20223;-72